sensor_id;sensor_type;location;lat;lon;timestamp;P1;durP1;ratioP1;P2;durP2;ratioP2
7563;SDS011;3823;53.586;10.040;2023-12-20T00:02:16;7.78;;;1.90;;
7563;SDS011;3823;53.586;10.040;2023-12-20T00:04:42;4.93;;;1.80;;
7563;SDS011;3823;53.586;10.040;2023-12-20T00:07:08;7.95;;;1.88;;
7563;SDS011;3823;53.586;10.040;2023-12-20T00:09:33;9.57;;;2.03;;
7563;SDS011;3823;53.586;10.040;2023-12-20T00:11:59;10.05;;;2.33;;
7563;SDS011;3823;53.586;10.040;2023-12-20T00:14:24;10.13;;;2.13;;
7563;SDS011;3823;53.586;10.040;2023-12-20T00:16:50;5.45;;;1.90;;
7563;SDS011;3823;53.586;10.040;2023-12-20T00:19:15;13.00;;;1.60;;
7563;SDS011;3823;53.586;10.040;2023-12-20T00:21:41;7.03;;;1.90;;
7563;SDS011;3823;53.586;10.040;2023-12-20T00:24:07;8.18;;;1.65;;
7563;SDS011;3823;53.586;10.040;2023-12-20T00:26:33;4.57;;;1.23;;
7563;SDS011;3823;53.586;10.040;2023-12-20T00:28:59;18.38;;;2.20;;
7563;SDS011;3823;53.586;10.040;2023-12-20T00:31:24;5.53;;;2.22;;
7563;SDS011;3823;53.586;10.040;2023-12-20T00:33:50;7.97;;;1.95;;
7563;SDS011;3823;53.586;10.040;2023-12-20T00:36:15;7.43;;;1.90;;
7563;SDS011;3823;53.586;10.040;2023-12-20T00:38:41;9.32;;;1.98;;
7563;SDS011;3823;53.586;10.040;2023-12-20T00:41:07;12.68;;;1.95;;
7563;SDS011;3823;53.586;10.040;2023-12-20T00:43:32;9.95;;;1.92;;
7563;SDS011;3823;53.586;10.040;2023-12-20T00:45:58;3.88;;;1.60;;
7563;SDS011;3823;53.586;10.040;2023-12-20T00:48:25;7.13;;;2.13;;
7563;SDS011;3823;53.586;10.040;2023-12-20T00:50:52;8.18;;;1.60;;
7563;SDS011;3823;53.586;10.040;2023-12-20T00:53:17;5.63;;;1.50;;
7563;SDS011;3823;53.586;10.040;2023-12-20T00:55:43;9.13;;;2.03;;
7563;SDS011;3823;53.586;10.040;2023-12-20T00:58:09;11.98;;;3.53;;
7563;SDS011;3823;53.586;10.040;2023-12-20T01:00:35;8.20;;;2.15;;
7563;SDS011;3823;53.586;10.040;2023-12-20T01:03:01;6.50;;;2.10;;
7563;SDS011;3823;53.586;10.040;2023-12-20T01:05:26;10.38;;;2.38;;
7563;SDS011;3823;53.586;10.040;2023-12-20T01:07:52;13.40;;;2.10;;
7563;SDS011;3823;53.586;10.040;2023-12-20T01:10:17;12.20;;;2.38;;
7563;SDS011;3823;53.586;10.040;2023-12-20T01:12:43;5.00;;;2.60;;
7563;SDS011;3823;53.586;10.040;2023-12-20T01:15:09;5.40;;;1.80;;
7563;SDS011;3823;53.586;10.040;2023-12-20T01:17:35;12.65;;;2.10;;
7563;SDS011;3823;53.586;10.040;2023-12-20T01:20:01;11.18;;;2.83;;
7563;SDS011;3823;53.586;10.040;2023-12-20T01:22:26;10.10;;;1.80;;
7563;SDS011;3823;53.586;10.040;2023-12-20T01:24:52;4.40;;;1.38;;
7563;SDS011;3823;53.586;10.040;2023-12-20T01:27:17;8.43;;;1.70;;
7563;SDS011;3823;53.586;10.040;2023-12-20T01:29:43;12.05;;;1.58;;
7563;SDS011;3823;53.586;10.040;2023-12-20T01:32:09;10.38;;;1.63;;
7563;SDS011;3823;53.586;10.040;2023-12-20T01:34:35;5.35;;;1.30;;
7563;SDS011;3823;53.586;10.040;2023-12-20T01:37:00;12.57;;;2.15;;
7563;SDS011;3823;53.586;10.040;2023-12-20T01:39:26;6.45;;;1.42;;
7563;SDS011;3823;53.586;10.040;2023-12-20T01:41:52;9.02;;;2.65;;
7563;SDS011;3823;53.586;10.040;2023-12-20T01:44:17;10.27;;;2.10;;
7563;SDS011;3823;53.586;10.040;2023-12-20T01:46:43;6.35;;;1.45;;
7563;SDS011;3823;53.586;10.040;2023-12-20T01:49:09;15.52;;;2.10;;
7563;SDS011;3823;53.586;10.040;2023-12-20T01:51:34;12.13;;;2.00;;
7563;SDS011;3823;53.586;10.040;2023-12-20T01:54:00;13.45;;;2.05;;
7563;SDS011;3823;53.586;10.040;2023-12-20T01:56:26;6.97;;;1.67;;
7563;SDS011;3823;53.586;10.040;2023-12-20T01:58:53;7.18;;;2.47;;
7563;SDS011;3823;53.586;10.040;2023-12-20T02:01:20;6.97;;;1.58;;
7563;SDS011;3823;53.586;10.040;2023-12-20T02:03:46;22.00;;;3.78;;
7563;SDS011;3823;53.586;10.040;2023-12-20T02:06:12;15.93;;;2.00;;
7563;SDS011;3823;53.586;10.040;2023-12-20T02:08:38;8.98;;;3.05;;
7563;SDS011;3823;53.586;10.040;2023-12-20T02:11:03;13.35;;;1.80;;
7563;SDS011;3823;53.586;10.040;2023-12-20T02:13:30;16.52;;;2.35;;
7563;SDS011;3823;53.586;10.040;2023-12-20T02:15:56;5.05;;;1.50;;
7563;SDS011;3823;53.586;10.040;2023-12-20T02:18:21;10.57;;;1.42;;
7563;SDS011;3823;53.586;10.040;2023-12-20T02:20:47;5.97;;;1.95;;
7563;SDS011;3823;53.586;10.040;2023-12-20T02:23:13;12.23;;;3.15;;
7563;SDS011;3823;53.586;10.040;2023-12-20T02:25:38;8.07;;;1.83;;
7563;SDS011;3823;53.586;10.040;2023-12-20T02:28:04;6.93;;;1.70;;
7563;SDS011;3823;53.586;10.040;2023-12-20T02:30:31;10.23;;;2.00;;
7563;SDS011;3823;53.586;10.040;2023-12-20T02:32:57;11.45;;;1.98;;
7563;SDS011;3823;53.586;10.040;2023-12-20T02:35:25;10.90;;;1.98;;
7563;SDS011;3823;53.586;10.040;2023-12-20T02:37:50;6.97;;;2.03;;
7563;SDS011;3823;53.586;10.040;2023-12-20T02:40:16;5.93;;;1.35;;
7563;SDS011;3823;53.586;10.040;2023-12-20T02:42:41;9.07;;;2.15;;
7563;SDS011;3823;53.586;10.040;2023-12-20T02:45:07;10.10;;;1.83;;
7563;SDS011;3823;53.586;10.040;2023-12-20T02:47:33;5.60;;;2.05;;
7563;SDS011;3823;53.586;10.040;2023-12-20T02:49:58;4.43;;;1.20;;
7563;SDS011;3823;53.586;10.040;2023-12-20T02:52:24;13.30;;;2.55;;
7563;SDS011;3823;53.586;10.040;2023-12-20T02:54:50;8.90;;;1.52;;
7563;SDS011;3823;53.586;10.040;2023-12-20T02:57:16;7.88;;;3.15;;
7563;SDS011;3823;53.586;10.040;2023-12-20T02:59:41;3.55;;;1.52;;
7563;SDS011;3823;53.586;10.040;2023-12-20T03:02:07;6.95;;;2.03;;
7563;SDS011;3823;53.586;10.040;2023-12-20T03:04:33;12.35;;;1.65;;
7563;SDS011;3823;53.586;10.040;2023-12-20T03:06:58;5.30;;;1.80;;
7563;SDS011;3823;53.586;10.040;2023-12-20T03:09:24;11.00;;;2.15;;
7563;SDS011;3823;53.586;10.040;2023-12-20T03:11:49;9.50;;;1.83;;
7563;SDS011;3823;53.586;10.040;2023-12-20T03:14:15;9.80;;;1.80;;
7563;SDS011;3823;53.586;10.040;2023-12-20T03:16:41;6.78;;;1.98;;
7563;SDS011;3823;53.586;10.040;2023-12-20T03:19:06;10.00;;;1.42;;
7563;SDS011;3823;53.586;10.040;2023-12-20T03:21:32;13.70;;;1.65;;
7563;SDS011;3823;53.586;10.040;2023-12-20T03:23:57;6.22;;;2.10;;
7563;SDS011;3823;53.586;10.040;2023-12-20T03:26:23;8.07;;;1.80;;
7563;SDS011;3823;53.586;10.040;2023-12-20T03:28:48;10.52;;;2.22;;
7563;SDS011;3823;53.586;10.040;2023-12-20T03:31:14;8.35;;;1.33;;
7563;SDS011;3823;53.586;10.040;2023-12-20T03:33:39;6.75;;;2.60;;
7563;SDS011;3823;53.586;10.040;2023-12-20T03:36:05;6.63;;;2.47;;
7563;SDS011;3823;53.586;10.040;2023-12-20T03:38:31;10.52;;;1.88;;
7563;SDS011;3823;53.586;10.040;2023-12-20T03:40:56;3.92;;;1.63;;
7563;SDS011;3823;53.586;10.040;2023-12-20T03:43:22;9.00;;;2.35;;
7563;SDS011;3823;53.586;10.040;2023-12-20T03:45:47;4.15;;;1.52;;
7563;SDS011;3823;53.586;10.040;2023-12-20T03:48:13;5.25;;;1.77;;
7563;SDS011;3823;53.586;10.040;2023-12-20T03:50:38;6.32;;;1.33;;
7563;SDS011;3823;53.586;10.040;2023-12-20T03:53:04;8.70;;;1.75;;
7563;SDS011;3823;53.586;10.040;2023-12-20T03:55:29;7.40;;;1.38;;
7563;SDS011;3823;53.586;10.040;2023-12-20T03:57:55;6.88;;;1.63;;
7563;SDS011;3823;53.586;10.040;2023-12-20T04:00:21;6.32;;;2.10;;
7563;SDS011;3823;53.586;10.040;2023-12-20T04:02:46;16.83;;;2.53;;
7563;SDS011;3823;53.586;10.040;2023-12-20T04:05:12;6.78;;;1.83;;
7563;SDS011;3823;53.586;10.040;2023-12-20T04:07:38;7.75;;;1.67;;
7563;SDS011;3823;53.586;10.040;2023-12-20T04:10:04;8.40;;;1.77;;
7563;SDS011;3823;53.586;10.040;2023-12-20T04:12:30;8.20;;;2.75;;
7563;SDS011;3823;53.586;10.040;2023-12-20T04:14:57;5.35;;;1.63;;
7563;SDS011;3823;53.586;10.040;2023-12-20T04:17:23;7.65;;;1.60;;
7563;SDS011;3823;53.586;10.040;2023-12-20T04:19:49;10.93;;;1.65;;
7563;SDS011;3823;53.586;10.040;2023-12-20T04:22:15;5.53;;;1.67;;
7563;SDS011;3823;53.586;10.040;2023-12-20T04:24:40;7.75;;;2.40;;
7563;SDS011;3823;53.586;10.040;2023-12-20T04:27:09;5.50;;;1.55;;
7563;SDS011;3823;53.586;10.040;2023-12-20T04:29:35;11.93;;;2.38;;
7563;SDS011;3823;53.586;10.040;2023-12-20T04:32:01;5.07;;;1.50;;
7563;SDS011;3823;53.586;10.040;2023-12-20T04:34:26;5.05;;;2.58;;
7563;SDS011;3823;53.586;10.040;2023-12-20T04:36:52;6.70;;;1.67;;
7563;SDS011;3823;53.586;10.040;2023-12-20T04:39:18;6.90;;;1.75;;
7563;SDS011;3823;53.586;10.040;2023-12-20T04:41:43;6.55;;;1.50;;
7563;SDS011;3823;53.586;10.040;2023-12-20T04:44:09;9.65;;;2.42;;
7563;SDS011;3823;53.586;10.040;2023-12-20T04:46:34;9.65;;;2.38;;
7563;SDS011;3823;53.586;10.040;2023-12-20T04:49:00;8.38;;;2.60;;
7563;SDS011;3823;53.586;10.040;2023-12-20T04:51:26;7.22;;;1.70;;
7563;SDS011;3823;53.586;10.040;2023-12-20T04:53:52;9.20;;;3.03;;
7563;SDS011;3823;53.586;10.040;2023-12-20T04:56:17;7.38;;;2.72;;
7563;SDS011;3823;53.586;10.040;2023-12-20T04:58:43;11.77;;;1.88;;
7563;SDS011;3823;53.586;10.040;2023-12-20T05:01:08;7.80;;;1.65;;
7563;SDS011;3823;53.586;10.040;2023-12-20T05:03:34;11.57;;;2.38;;
7563;SDS011;3823;53.586;10.040;2023-12-20T05:06:00;6.97;;;1.77;;
7563;SDS011;3823;53.586;10.040;2023-12-20T05:08:26;11.93;;;2.10;;
7563;SDS011;3823;53.586;10.040;2023-12-20T05:10:53;7.38;;;1.60;;
7563;SDS011;3823;53.586;10.040;2023-12-20T05:13:19;8.38;;;1.75;;
7563;SDS011;3823;53.586;10.040;2023-12-20T05:15:45;6.78;;;2.08;;
7563;SDS011;3823;53.586;10.040;2023-12-20T05:18:11;7.07;;;1.70;;
7563;SDS011;3823;53.586;10.040;2023-12-20T05:20:37;7.93;;;2.22;;
7563;SDS011;3823;53.586;10.040;2023-12-20T05:23:03;8.43;;;2.00;;
7563;SDS011;3823;53.586;10.040;2023-12-20T05:25:29;9.88;;;1.95;;
7563;SDS011;3823;53.586;10.040;2023-12-20T05:27:54;14.45;;;3.03;;
7563;SDS011;3823;53.586;10.040;2023-12-20T05:30:21;9.23;;;1.80;;
7563;SDS011;3823;53.586;10.040;2023-12-20T05:32:46;7.93;;;2.00;;
7563;SDS011;3823;53.586;10.040;2023-12-20T05:35:12;9.13;;;2.42;;
7563;SDS011;3823;53.586;10.040;2023-12-20T05:37:37;10.80;;;2.65;;
7563;SDS011;3823;53.586;10.040;2023-12-20T05:40:03;9.10;;;2.08;;
7563;SDS011;3823;53.586;10.040;2023-12-20T05:42:29;5.38;;;3.28;;
7563;SDS011;3823;53.586;10.040;2023-12-20T05:44:55;8.88;;;2.15;;
7563;SDS011;3823;53.586;10.040;2023-12-20T05:47:20;7.88;;;2.50;;
7563;SDS011;3823;53.586;10.040;2023-12-20T05:49:46;7.80;;;1.88;;
7563;SDS011;3823;53.586;10.040;2023-12-20T05:52:11;10.45;;;2.25;;
7563;SDS011;3823;53.586;10.040;2023-12-20T05:54:37;8.82;;;2.60;;
7563;SDS011;3823;53.586;10.040;2023-12-20T05:57:03;14.75;;;3.00;;
7563;SDS011;3823;53.586;10.040;2023-12-20T05:59:28;11.30;;;3.60;;
7563;SDS011;3823;53.586;10.040;2023-12-20T06:01:54;9.95;;;2.30;;
7563;SDS011;3823;53.586;10.040;2023-12-20T06:04:19;10.25;;;1.95;;
7563;SDS011;3823;53.586;10.040;2023-12-20T06:06:45;8.68;;;2.33;;
7563;SDS011;3823;53.586;10.040;2023-12-20T06:09:11;4.97;;;2.08;;
7563;SDS011;3823;53.586;10.040;2023-12-20T06:11:36;11.23;;;2.45;;
7563;SDS011;3823;53.586;10.040;2023-12-20T06:14:02;7.88;;;2.15;;
7563;SDS011;3823;53.586;10.040;2023-12-20T06:16:28;10.40;;;2.28;;
7563;SDS011;3823;53.586;10.040;2023-12-20T06:18:53;20.02;;;3.30;;
7563;SDS011;3823;53.586;10.040;2023-12-20T06:21:19;9.57;;;2.78;;
7563;SDS011;3823;53.586;10.040;2023-12-20T06:23:45;8.10;;;3.55;;
7563;SDS011;3823;53.586;10.040;2023-12-20T06:26:10;9.43;;;2.95;;
7563;SDS011;3823;53.586;10.040;2023-12-20T06:28:36;10.85;;;3.42;;
7563;SDS011;3823;53.586;10.040;2023-12-20T06:31:01;10.50;;;2.55;;
7563;SDS011;3823;53.586;10.040;2023-12-20T06:33:28;9.55;;;2.15;;
7563;SDS011;3823;53.586;10.040;2023-12-20T06:35:54;9.10;;;1.92;;
7563;SDS011;3823;53.586;10.040;2023-12-20T06:38:20;10.57;;;2.72;;
7563;SDS011;3823;53.586;10.040;2023-12-20T06:40:45;9.23;;;2.58;;
7563;SDS011;3823;53.586;10.040;2023-12-20T06:43:11;9.00;;;2.03;;
7563;SDS011;3823;53.586;10.040;2023-12-20T06:45:38;12.15;;;2.15;;
7563;SDS011;3823;53.586;10.040;2023-12-20T06:48:04;5.30;;;2.22;;
7563;SDS011;3823;53.586;10.040;2023-12-20T06:50:30;9.93;;;2.72;;
7563;SDS011;3823;53.586;10.040;2023-12-20T06:52:55;5.85;;;2.08;;
7563;SDS011;3823;53.586;10.040;2023-12-20T06:55:21;6.03;;;2.72;;
7563;SDS011;3823;53.586;10.040;2023-12-20T06:57:46;5.60;;;1.92;;
7563;SDS011;3823;53.586;10.040;2023-12-20T07:00:12;9.32;;;2.50;;
7563;SDS011;3823;53.586;10.040;2023-12-20T07:02:38;10.25;;;2.40;;
7563;SDS011;3823;53.586;10.040;2023-12-20T07:05:04;15.13;;;3.05;;
7563;SDS011;3823;53.586;10.040;2023-12-20T07:07:30;5.88;;;2.58;;
7563;SDS011;3823;53.586;10.040;2023-12-20T07:09:55;6.68;;;2.10;;
7563;SDS011;3823;53.586;10.040;2023-12-20T07:12:21;15.23;;;2.50;;
7563;SDS011;3823;53.586;10.040;2023-12-20T07:14:46;9.60;;;2.20;;
7563;SDS011;3823;53.586;10.040;2023-12-20T07:17:12;6.15;;;1.60;;
7563;SDS011;3823;53.586;10.040;2023-12-20T07:19:40;12.73;;;3.88;;
7563;SDS011;3823;53.586;10.040;2023-12-20T07:22:06;9.38;;;2.28;;
7563;SDS011;3823;53.586;10.040;2023-12-20T07:24:32;7.80;;;2.90;;
7563;SDS011;3823;53.586;10.040;2023-12-20T07:26:59;10.55;;;3.55;;
7563;SDS011;3823;53.586;10.040;2023-12-20T07:29:25;9.25;;;2.28;;
7563;SDS011;3823;53.586;10.040;2023-12-20T07:31:52;11.88;;;2.28;;
7563;SDS011;3823;53.586;10.040;2023-12-20T07:34:18;15.52;;;2.40;;
7563;SDS011;3823;53.586;10.040;2023-12-20T07:36:44;12.20;;;2.95;;
7563;SDS011;3823;53.586;10.040;2023-12-20T07:39:10;7.95;;;2.35;;
7563;SDS011;3823;53.586;10.040;2023-12-20T07:41:36;12.23;;;3.13;;
7563;SDS011;3823;53.586;10.040;2023-12-20T07:44:01;14.63;;;2.38;;
7563;SDS011;3823;53.586;10.040;2023-12-20T07:46:29;16.60;;;3.10;;
7563;SDS011;3823;53.586;10.040;2023-12-20T07:48:54;12.48;;;2.22;;
7563;SDS011;3823;53.586;10.040;2023-12-20T07:51:20;8.52;;;3.83;;
7563;SDS011;3823;53.586;10.040;2023-12-20T07:53:46;11.68;;;2.70;;
7563;SDS011;3823;53.586;10.040;2023-12-20T07:56:18;14.35;;;3.67;;
7563;SDS011;3823;53.586;10.040;2023-12-20T07:58:44;7.40;;;2.83;;
7563;SDS011;3823;53.586;10.040;2023-12-20T08:01:11;14.93;;;2.92;;
7563;SDS011;3823;53.586;10.040;2023-12-20T08:03:37;20.70;;;2.88;;
7563;SDS011;3823;53.586;10.040;2023-12-20T08:06:04;6.32;;;2.80;;
7563;SDS011;3823;53.586;10.040;2023-12-20T08:08:29;10.20;;;2.90;;
7563;SDS011;3823;53.586;10.040;2023-12-20T08:10:55;5.90;;;2.28;;
7563;SDS011;3823;53.586;10.040;2023-12-20T08:13:24;14.00;;;3.75;;
7563;SDS011;3823;53.586;10.040;2023-12-20T08:15:51;11.13;;;2.60;;
7563;SDS011;3823;53.586;10.040;2023-12-20T08:18:17;17.40;;;3.22;;
7563;SDS011;3823;53.586;10.040;2023-12-20T08:20:43;12.13;;;2.88;;
7563;SDS011;3823;53.586;10.040;2023-12-20T08:23:08;15.85;;;3.78;;
7563;SDS011;3823;53.586;10.040;2023-12-20T08:25:34;9.88;;;3.05;;
7563;SDS011;3823;53.586;10.040;2023-12-20T08:27:59;15.00;;;3.63;;
7563;SDS011;3823;53.586;10.040;2023-12-20T08:30:27;10.60;;;3.47;;
7563;SDS011;3823;53.586;10.040;2023-12-20T08:32:54;12.52;;;2.67;;
7563;SDS011;3823;53.586;10.040;2023-12-20T08:35:20;8.13;;;2.47;;
7563;SDS011;3823;53.586;10.040;2023-12-20T08:37:45;11.90;;;3.00;;
7563;SDS011;3823;53.586;10.040;2023-12-20T08:40:11;8.43;;;2.85;;
7563;SDS011;3823;53.586;10.040;2023-12-20T08:42:37;8.48;;;2.40;;
7563;SDS011;3823;53.586;10.040;2023-12-20T08:45:02;22.13;;;3.80;;
7563;SDS011;3823;53.586;10.040;2023-12-20T08:47:29;9.25;;;3.60;;
7563;SDS011;3823;53.586;10.040;2023-12-20T08:49:55;16.48;;;2.72;;
7563;SDS011;3823;53.586;10.040;2023-12-20T08:52:22;6.60;;;2.83;;
7563;SDS011;3823;53.586;10.040;2023-12-20T08:54:48;10.18;;;2.67;;
7563;SDS011;3823;53.586;10.040;2023-12-20T08:57:16;14.68;;;3.92;;
7563;SDS011;3823;53.586;10.040;2023-12-20T08:59:46;12.23;;;3.17;;
7563;SDS011;3823;53.586;10.040;2023-12-20T09:02:12;16.10;;;3.90;;
7563;SDS011;3823;53.586;10.040;2023-12-20T09:04:38;8.20;;;2.47;;
7563;SDS011;3823;53.586;10.040;2023-12-20T09:07:04;19.27;;;3.47;;
7563;SDS011;3823;53.586;10.040;2023-12-20T09:09:29;10.88;;;2.78;;
7563;SDS011;3823;53.586;10.040;2023-12-20T09:11:57;6.97;;;2.50;;
7563;SDS011;3823;53.586;10.040;2023-12-20T09:14:22;10.80;;;2.03;;
7563;SDS011;3823;53.586;10.040;2023-12-20T09:16:48;9.82;;;2.00;;
7563;SDS011;3823;53.586;10.040;2023-12-20T09:19:16;5.55;;;2.40;;
7563;SDS011;3823;53.586;10.040;2023-12-20T09:21:42;6.43;;;1.90;;
7563;SDS011;3823;53.586;10.040;2023-12-20T09:24:07;9.32;;;2.08;;
7563;SDS011;3823;53.586;10.040;2023-12-20T09:26:33;8.07;;;1.95;;
7563;SDS011;3823;53.586;10.040;2023-12-20T09:28:59;7.60;;;1.83;;
7563;SDS011;3823;53.586;10.040;2023-12-20T09:31:25;5.47;;;1.15;;
7563;SDS011;3823;53.586;10.040;2023-12-20T09:33:50;3.28;;;1.48;;
7563;SDS011;3823;53.586;10.040;2023-12-20T09:36:16;4.40;;;0.98;;
7563;SDS011;3823;53.586;10.040;2023-12-20T09:38:42;4.18;;;1.83;;
7563;SDS011;3823;53.586;10.040;2023-12-20T09:41:07;8.45;;;2.60;;
7563;SDS011;3823;53.586;10.040;2023-12-20T09:43:34;3.22;;;0.95;;
7563;SDS011;3823;53.586;10.040;2023-12-20T09:46:02;2.65;;;1.20;;
7563;SDS011;3823;53.586;10.040;2023-12-20T09:48:31;4.50;;;0.73;;
7563;SDS011;3823;53.586;10.040;2023-12-20T09:50:57;2.10;;;1.58;;
7563;SDS011;3823;53.586;10.040;2023-12-20T09:53:23;4.80;;;1.70;;
7563;SDS011;3823;53.586;10.040;2023-12-20T09:55:54;2.28;;;0.50;;
7563;SDS011;3823;53.586;10.040;2023-12-20T09:58:24;1.38;;;0.35;;
7563;SDS011;3823;53.586;10.040;2023-12-20T10:00:49;2.25;;;0.47;;
7563;SDS011;3823;53.586;10.040;2023-12-20T10:03:16;1.33;;;0.73;;
7563;SDS011;3823;53.586;10.040;2023-12-20T10:05:42;1.17;;;0.47;;
7563;SDS011;3823;53.586;10.040;2023-12-20T10:08:09;1.30;;;0.60;;
7563;SDS011;3823;53.586;10.040;2023-12-20T10:10:35;1.27;;;0.45;;
7563;SDS011;3823;53.586;10.040;2023-12-20T10:13:04;2.55;;;0.52;;
7563;SDS011;3823;53.586;10.040;2023-12-20T10:15:34;2.47;;;0.68;;
7563;SDS011;3823;53.586;10.040;2023-12-20T10:18:01;6.00;;;0.98;;
7563;SDS011;3823;53.586;10.040;2023-12-20T10:20:28;0.90;;;0.40;;
7563;SDS011;3823;53.586;10.040;2023-12-20T10:22:57;1.85;;;0.60;;
7563;SDS011;3823;53.586;10.040;2023-12-20T10:25:24;3.40;;;1.00;;
7563;SDS011;3823;53.586;10.040;2023-12-20T10:27:51;4.47;;;1.20;;
7563;SDS011;3823;53.586;10.040;2023-12-20T10:30:37;2.80;;;0.60;;
7563;SDS011;3823;53.586;10.040;2023-12-20T10:33:04;4.53;;;0.52;;
7563;SDS011;3823;53.586;10.040;2023-12-20T10:35:31;1.70;;;0.73;;
7563;SDS011;3823;53.586;10.040;2023-12-20T10:37:57;1.20;;;0.57;;
7563;SDS011;3823;53.586;10.040;2023-12-20T10:40:27;3.55;;;0.90;;
7563;SDS011;3823;53.586;10.040;2023-12-20T10:42:55;1.30;;;0.50;;
7563;SDS011;3823;53.586;10.040;2023-12-20T10:45:21;4.75;;;0.68;;
7563;SDS011;3823;53.586;10.040;2023-12-20T10:47:48;2.08;;;0.52;;
7563;SDS011;3823;53.586;10.040;2023-12-20T10:50:15;3.72;;;0.75;;
7563;SDS011;3823;53.586;10.040;2023-12-20T10:52:41;3.00;;;0.70;;
7563;SDS011;3823;53.586;10.040;2023-12-20T10:55:09;3.28;;;1.33;;
7563;SDS011;3823;53.586;10.040;2023-12-20T10:57:35;3.30;;;0.98;;
7563;SDS011;3823;53.586;10.040;2023-12-20T11:00:02;1.90;;;0.70;;
7563;SDS011;3823;53.586;10.040;2023-12-20T11:02:35;1.60;;;0.90;;
7563;SDS011;3823;53.586;10.040;2023-12-20T11:05:19;1.30;;;0.55;;
7563;SDS011;3823;53.586;10.040;2023-12-20T11:08:11;1.80;;;0.90;;
7563;SDS011;3823;53.586;10.040;2023-12-20T11:10:56;7.82;;;1.15;;
7563;SDS011;3823;53.586;10.040;2023-12-20T11:13:44;4.22;;;1.00;;
7563;SDS011;3823;53.586;10.040;2023-12-20T11:16:13;5.15;;;0.93;;
7563;SDS011;3823;53.586;10.040;2023-12-20T11:18:38;8.13;;;1.10;;
7563;SDS011;3823;53.586;10.040;2023-12-20T11:21:06;7.75;;;0.90;;
7563;SDS011;3823;53.586;10.040;2023-12-20T11:23:31;2.75;;;0.77;;
7563;SDS011;3823;53.586;10.040;2023-12-20T11:26:01;9.68;;;1.30;;
7563;SDS011;3823;53.586;10.040;2023-12-20T11:28:27;4.95;;;1.73;;
7563;SDS011;3823;53.586;10.040;2023-12-20T11:30:55;4.38;;;0.85;;
7563;SDS011;3823;53.586;10.040;2023-12-20T11:33:23;5.80;;;1.85;;
7563;SDS011;3823;53.586;10.040;2023-12-20T11:35:49;4.72;;;1.30;;
7563;SDS011;3823;53.586;10.040;2023-12-20T11:38:16;4.75;;;0.68;;
7563;SDS011;3823;53.586;10.040;2023-12-20T11:40:42;2.80;;;0.70;;
7563;SDS011;3823;53.586;10.040;2023-12-20T11:43:08;4.13;;;1.00;;
7563;SDS011;3823;53.586;10.040;2023-12-20T11:45:34;1.10;;;0.47;;
7563;SDS011;3823;53.586;10.040;2023-12-20T11:48:00;3.28;;;0.88;;
7563;SDS011;3823;53.586;10.040;2023-12-20T11:50:27;6.95;;;1.80;;
7563;SDS011;3823;53.586;10.040;2023-12-20T11:52:54;5.28;;;1.35;;
7563;SDS011;3823;53.586;10.040;2023-12-20T11:55:21;4.30;;;0.80;;
7563;SDS011;3823;53.586;10.040;2023-12-20T11:57:47;9.13;;;1.50;;
7563;SDS011;3823;53.586;10.040;2023-12-20T12:00:13;2.80;;;1.90;;
7563;SDS011;3823;53.586;10.040;2023-12-20T12:02:39;6.88;;;1.42;;
7563;SDS011;3823;53.586;10.040;2023-12-20T12:05:04;5.30;;;1.70;;
7563;SDS011;3823;53.586;10.040;2023-12-20T12:07:31;14.15;;;1.80;;
7563;SDS011;3823;53.586;10.040;2023-12-20T12:09:57;4.53;;;1.63;;
7563;SDS011;3823;53.586;10.040;2023-12-20T12:12:23;7.35;;;2.10;;
7563;SDS011;3823;53.586;10.040;2023-12-20T12:14:51;5.28;;;1.17;;
7563;SDS011;3823;53.586;10.040;2023-12-20T12:17:17;9.10;;;1.67;;
7563;SDS011;3823;53.586;10.040;2023-12-20T12:19:43;6.30;;;1.65;;
7563;SDS011;3823;53.586;10.040;2023-12-20T12:22:09;6.40;;;3.15;;
7563;SDS011;3823;53.586;10.040;2023-12-20T12:24:40;8.30;;;2.97;;
7563;SDS011;3823;53.586;10.040;2023-12-20T12:27:06;9.75;;;2.80;;
7563;SDS011;3823;53.586;10.040;2023-12-20T12:29:32;16.90;;;2.22;;
7563;SDS011;3823;53.586;10.040;2023-12-20T12:31:59;5.95;;;1.65;;
7563;SDS011;3823;53.586;10.040;2023-12-20T12:34:27;2.75;;;1.50;;
7563;SDS011;3823;53.586;10.040;2023-12-20T12:36:53;10.65;;;2.08;;
7563;SDS011;3823;53.586;10.040;2023-12-20T12:39:18;11.98;;;2.92;;
7563;SDS011;3823;53.586;10.040;2023-12-20T12:41:44;11.63;;;2.70;;
7563;SDS011;3823;53.586;10.040;2023-12-20T12:44:10;10.82;;;3.17;;
7563;SDS011;3823;53.586;10.040;2023-12-20T12:46:35;9.02;;;1.70;;
7563;SDS011;3823;53.586;10.040;2023-12-20T12:49:01;14.43;;;2.38;;
7563;SDS011;3823;53.586;10.040;2023-12-20T12:51:27;8.50;;;1.77;;
7563;SDS011;3823;53.586;10.040;2023-12-20T12:53:53;6.25;;;1.65;;
7563;SDS011;3823;53.586;10.040;2023-12-20T12:56:18;8.88;;;1.80;;
7563;SDS011;3823;53.586;10.040;2023-12-20T12:58:44;17.58;;;4.75;;
7563;SDS011;3823;53.586;10.040;2023-12-20T13:01:10;8.40;;;1.67;;
7563;SDS011;3823;53.586;10.040;2023-12-20T13:03:36;6.75;;;2.25;;
7563;SDS011;3823;53.586;10.040;2023-12-20T13:06:03;7.88;;;2.03;;
7563;SDS011;3823;53.586;10.040;2023-12-20T13:08:30;6.78;;;2.03;;
7563;SDS011;3823;53.586;10.040;2023-12-20T13:10:56;17.77;;;2.10;;
7563;SDS011;3823;53.586;10.040;2023-12-20T13:13:25;19.60;;;3.90;;
7563;SDS011;3823;53.586;10.040;2023-12-20T13:15:51;10.90;;;2.30;;
7563;SDS011;3823;53.586;10.040;2023-12-20T13:18:19;5.47;;;1.63;;
7563;SDS011;3823;53.586;10.040;2023-12-20T13:20:45;15.75;;;3.28;;
7563;SDS011;3823;53.586;10.040;2023-12-20T13:23:11;18.20;;;2.90;;
7563;SDS011;3823;53.586;10.040;2023-12-20T13:25:37;8.95;;;2.28;;
7563;SDS011;3823;53.586;10.040;2023-12-20T13:28:02;10.18;;;2.00;;
7563;SDS011;3823;53.586;10.040;2023-12-20T13:30:28;14.98;;;2.42;;
7563;SDS011;3823;53.586;10.040;2023-12-20T13:32:54;8.88;;;2.47;;
7563;SDS011;3823;53.586;10.040;2023-12-20T13:35:20;17.52;;;4.63;;
7563;SDS011;3823;53.586;10.040;2023-12-20T13:37:45;21.38;;;3.55;;
7563;SDS011;3823;53.586;10.040;2023-12-20T13:40:11;6.97;;;2.78;;
7563;SDS011;3823;53.586;10.040;2023-12-20T13:42:37;14.88;;;2.47;;
7563;SDS011;3823;53.586;10.040;2023-12-20T13:45:06;20.50;;;2.85;;
7563;SDS011;3823;53.586;10.040;2023-12-20T13:47:32;10.82;;;2.58;;
7563;SDS011;3823;53.586;10.040;2023-12-20T13:49:58;14.65;;;3.22;;
7563;SDS011;3823;53.586;10.040;2023-12-20T13:52:24;13.10;;;4.22;;
7563;SDS011;3823;53.586;10.040;2023-12-20T13:54:49;15.13;;;4.32;;
7563;SDS011;3823;53.586;10.040;2023-12-20T13:57:15;9.55;;;4.28;;
7563;SDS011;3823;53.586;10.040;2023-12-20T13:59:40;9.55;;;3.15;;
7563;SDS011;3823;53.586;10.040;2023-12-20T14:02:06;18.92;;;3.38;;
7563;SDS011;3823;53.586;10.040;2023-12-20T14:04:32;10.93;;;3.20;;
7563;SDS011;3823;53.586;10.040;2023-12-20T14:06:57;15.93;;;3.72;;
7563;SDS011;3823;53.586;10.040;2023-12-20T14:09:23;16.98;;;3.58;;
7563;SDS011;3823;53.586;10.040;2023-12-20T14:11:48;13.90;;;2.92;;
7563;SDS011;3823;53.586;10.040;2023-12-20T14:14:14;14.25;;;3.53;;
7563;SDS011;3823;53.586;10.040;2023-12-20T14:16:39;10.18;;;4.13;;
7563;SDS011;3823;53.586;10.040;2023-12-20T14:19:06;15.73;;;3.42;;
7563;SDS011;3823;53.586;10.040;2023-12-20T14:21:34;18.42;;;3.17;;
7563;SDS011;3823;53.586;10.040;2023-12-20T14:24:00;16.05;;;4.20;;
7563;SDS011;3823;53.586;10.040;2023-12-20T14:26:25;10.98;;;3.75;;
7563;SDS011;3823;53.586;10.040;2023-12-20T14:28:52;14.00;;;3.85;;
7563;SDS011;3823;53.586;10.040;2023-12-20T14:31:18;12.02;;;3.63;;
7563;SDS011;3823;53.586;10.040;2023-12-20T14:33:44;10.50;;;4.00;;
7563;SDS011;3823;53.586;10.040;2023-12-20T14:36:11;10.43;;;3.72;;
7563;SDS011;3823;53.586;10.040;2023-12-20T14:38:36;14.75;;;4.30;;
7563;SDS011;3823;53.586;10.040;2023-12-20T14:41:02;24.13;;;3.50;;
7563;SDS011;3823;53.586;10.040;2023-12-20T14:43:30;14.38;;;3.75;;
7563;SDS011;3823;53.586;10.040;2023-12-20T14:45:56;20.23;;;4.10;;
7563;SDS011;3823;53.586;10.040;2023-12-20T14:48:21;12.48;;;4.22;;
7563;SDS011;3823;53.586;10.040;2023-12-20T14:50:47;9.65;;;3.25;;